KOKC/OKC METAR and TAF weather

Enter ICAO airport designator
Station Type Date Time Source
KOKC METAR 2021/09/23 16:52 UTC NOAA

KOKC 231652Z 24013KT 10SM FEW250 25/04 A3014 RMK AO2 SLP194 T02500039


Station Type Date Time Source
KOKC Decoded METAR 2021/09/23 16:52 UTC NOAA

WILL ROGERS WORLD AIRPORT, OK, United States (KOKC) 35-23N 97-36W 390M
Sep 23, 2021 - 12:52 PM EDT / 2021.09.23 1652 UTC
Wind: from the WSW (240 degrees) at 15 MPH (13 KT):0
Visibility: 10 mile(s):0
Sky conditions: mostly clear
Temperature: 77.0 F (25.0 C)
Dew Point: 39.0 F (3.9 C)
Relative Humidity: 25%
Pressure (altimeter): 30.14 in. Hg (1020 hPa)
ob: KOKC 231652Z 24013KT 10SM FEW250 25/04 A3014 RMK AO2 SLP194 T02500039
cycle: 17

Station Type Date Time Source
KOKC TAF 2021/09/23 12:22 UTC NOAA

TAF KOKC 231120Z 2312/2412 17007KT P6SM SKC
FM231500 19011G17KT P6SM SKC
FM240000 16009KT P6SM FEW250

Example: see airport list